createdAt,value
2022-10-10T00:00:48.420Z,98.70
2022-10-10T00:03:15.145Z,98.70
2022-10-10T00:05:42.367Z,98.60
2022-10-10T00:08:09.680Z,98.70
2022-10-10T00:10:37.420Z,98.70
2022-10-10T00:13:05.004Z,98.70
2022-10-10T00:15:32.301Z,98.70
2022-10-10T00:17:59.033Z,99.00
2022-10-10T00:20:25.742Z,98.70
2022-10-10T00:22:52.738Z,98.70
2022-10-10T00:25:19.761Z,98.70
2022-10-10T00:27:46.453Z,98.60
2022-10-10T00:30:13.138Z,98.70
2022-10-10T00:32:39.751Z,98.70
2022-10-10T00:35:06.929Z,98.70
2022-10-10T00:37:33.516Z,98.70
2022-10-10T00:40:00.187Z,98.70
2022-10-10T00:42:26.814Z,98.60
2022-10-10T00:45:21.945Z,98.90
2022-10-10T00:47:50.000Z,99.00
2022-10-10T00:50:20.925Z,98.60
2022-10-10T00:52:47.927Z,98.70
2022-10-10T00:55:15.285Z,98.80
2022-10-10T00:57:42.433Z,98.80
2022-10-10T01:00:10.524Z,98.80
2022-10-10T01:02:37.673Z,98.80
2022-10-10T01:05:04.812Z,98.80
2022-10-10T01:07:31.975Z,98.80
2022-10-10T01:10:19.555Z,98.70
2022-10-10T01:12:52.361Z,98.90
2022-10-10T01:15:31.983Z,98.80
2022-10-10T01:18:05.602Z,98.80
2022-10-10T01:21:09.520Z,98.90
2022-10-10T01:24:17.597Z,98.80
2022-10-10T01:27:05.258Z,98.80
2022-10-10T01:29:50.681Z,98.90
2022-10-10T01:32:24.142Z,98.90
2022-10-10T01:35:15.651Z,98.80
2022-10-10T01:38:06.281Z,98.80
2022-10-10T01:40:50.092Z,98.90
2022-10-10T01:43:17.476Z,99.10
2022-10-10T01:45:50.019Z,98.80
2022-10-10T01:48:23.522Z,98.90
2022-10-10T01:51:11.260Z,98.90
2022-10-10T01:53:52.011Z,98.80
2022-10-10T01:56:42.344Z,98.80
2022-10-10T01:59:23.917Z,98.80
2022-10-10T02:01:57.183Z,99.00
2022-10-10T02:04:40.994Z,99.00
2022-10-10T02:07:32.268Z,99.00
2022-10-10T02:10:02.770Z,99.00
2022-10-10T02:12:30.813Z,99.10
2022-10-10T02:15:04.236Z,99.00
2022-10-10T02:17:34.049Z,99.00
2022-10-10T02:20:00.870Z,99.00
2022-10-10T02:22:29.894Z,98.90
2022-10-10T02:24:56.637Z,98.80
2022-10-10T02:27:30.375Z,99.10
2022-10-10T02:29:59.220Z,99.00
2022-10-10T02:32:36.250Z,99.10
2022-10-10T02:35:09.227Z,99.00
2022-10-10T02:37:37.612Z,99.00
2022-10-10T02:40:07.292Z,99.00
2022-10-10T02:42:35.319Z,98.90
2022-10-10T02:45:03.497Z,98.90
2022-10-10T02:47:30.175Z,99.00
2022-10-10T02:49:57.040Z,99.00
2022-10-10T02:52:23.992Z,99.00
2022-10-10T02:54:50.583Z,99.00
2022-10-10T02:57:17.224Z,98.90
2022-10-10T02:59:43.859Z,98.90
2022-10-10T03:02:11.016Z,98.90
2022-10-10T03:04:37.795Z,99.00
2022-10-10T03:07:04.635Z,98.90
2022-10-10T03:09:31.314Z,99.30
2022-10-10T03:11:57.917Z,99.10
2022-10-10T03:14:24.655Z,99.20
2022-10-10T03:16:51.260Z,99.20
2022-10-10T03:19:17.884Z,99.10
2022-10-10T03:21:44.601Z,99.20
2022-10-10T03:24:11.203Z,99.20
2022-10-10T03:26:37.812Z,99.10
2022-10-10T03:29:05.163Z,99.10
2022-10-10T03:31:32.139Z,99.30
2022-10-10T03:33:58.911Z,99.10
2022-10-10T03:36:25.632Z,99.00
2022-10-10T03:38:52.314Z,99.10
2022-10-10T03:41:18.873Z,99.00
2022-10-10T03:43:45.493Z,99.10
2022-10-10T03:46:16.004Z,98.90
2022-10-10T03:48:43.316Z,99.30
2022-10-10T03:51:09.986Z,99.30
2022-10-10T03:53:37.209Z,99.20
2022-10-10T03:56:04.190Z,99.20
2022-10-10T03:58:30.827Z,99.00
2022-10-10T04:01:00.358Z,99.20
2022-10-10T04:03:27.342Z,99.10
2022-10-10T04:05:54.348Z,99.00
2022-10-10T04:08:21.002Z,99.20
2022-10-10T04:10:52.349Z,99.30
2022-10-10T04:13:19.776Z,99.00
2022-10-10T04:15:49.271Z,99.00
2022-10-10T04:18:15.848Z,99.10
2022-10-10T04:20:42.516Z,99.00
2022-10-10T04:23:09.124Z,99.00
2022-10-10T04:25:35.790Z,99.10
2022-10-10T04:28:02.541Z,99.20
2022-10-10T04:30:33.128Z,99.00
2022-10-10T04:33:00.175Z,99.00
2022-10-10T04:35:26.832Z,99.00
2022-10-10T04:37:53.505Z,99.00
2022-10-10T04:40:25.522Z,99.00
2022-10-10T04:42:53.757Z,99.10
2022-10-10T04:45:20.626Z,99.10
2022-10-10T04:47:47.277Z,99.10
2022-10-10T04:50:13.912Z,99.20
2022-10-10T04:52:40.522Z,99.10
2022-10-10T04:55:07.456Z,98.90
2022-10-10T04:57:34.036Z,99.10
2022-10-10T05:00:00.696Z,99.00
2022-10-10T05:02:27.497Z,99.10
2022-10-10T05:04:54.147Z,99.20
2022-10-10T05:07:20.857Z,99.10
2022-10-10T05:09:47.435Z,99.00
2022-10-10T05:12:14.036Z,99.20
2022-10-10T05:14:43.504Z,99.10
2022-10-10T05:17:14.306Z,99.20
2022-10-10T05:19:40.935Z,99.00
2022-10-10T05:22:07.546Z,99.10
2022-10-10T05:24:34.674Z,99.00
2022-10-10T05:27:01.329Z,98.90
2022-10-10T05:29:27.959Z,98.90
2022-10-10T05:31:54.685Z,99.00
2022-10-10T05:34:21.443Z,99.00
2022-10-10T05:36:48.053Z,99.20
2022-10-10T05:39:14.724Z,99.10
2022-10-10T05:41:41.404Z,99.20
2022-10-10T05:44:08.130Z,99.10
2022-10-10T05:46:34.879Z,98.90
2022-10-10T05:49:01.535Z,99.00
2022-10-10T05:51:28.400Z,99.20
2022-10-10T05:53:55.657Z,99.00
2022-10-10T05:56:23.220Z,99.10
2022-10-10T05:58:51.409Z,99.00
2022-10-10T06:01:18.430Z,99.00
2022-10-10T06:03:45.123Z,99.20
2022-10-10T06:06:11.777Z,98.90
2022-10-10T06:08:38.413Z,99.10
2022-10-10T06:11:08.533Z,99.20
2022-10-10T06:13:35.235Z,99.10
2022-10-10T06:16:01.934Z,99.20
2022-10-10T06:18:28.685Z,99.20
2022-10-10T06:20:55.327Z,99.10
2022-10-10T06:23:21.974Z,99.20
2022-10-10T06:25:52.079Z,99.20
2022-10-10T06:28:18.706Z,99.10
2022-10-10T06:30:48.402Z,99.20
2022-10-10T06:33:15.960Z,99.10
2022-10-10T06:35:44.424Z,99.20
2022-10-10T06:38:11.583Z,99.10
2022-10-10T06:40:39.258Z,99.20
2022-10-10T06:43:11.922Z,99.20
2022-10-10T06:45:46.912Z,99.10
2022-10-10T06:48:14.818Z,99.20
2022-10-10T06:50:41.599Z,99.10
2022-10-10T06:53:08.319Z,99.20
2022-10-10T06:55:34.930Z,99.10
2022-10-10T06:58:01.572Z,99.20
2022-10-10T07:00:28.182Z,99.20
2022-10-10T07:02:54.843Z,99.20
2022-10-10T07:05:21.451Z,99.20
2022-10-10T07:07:48.074Z,99.20
2022-10-10T07:10:15.771Z,99.30
2022-10-10T07:12:45.004Z,99.30
2022-10-10T07:15:12.310Z,99.30
2022-10-10T07:17:39.075Z,99.40
2022-10-10T07:20:06.122Z,99.50
2022-10-10T07:22:33.397Z,99.60
2022-10-10T07:25:00.014Z,99.70
2022-10-10T07:27:26.875Z,99.60
2022-10-10T07:29:53.536Z,99.50
2022-10-10T07:32:20.384Z,99.50
2022-10-10T07:34:46.974Z,99.30
2022-10-10T07:37:13.588Z,99.40
2022-10-10T07:39:40.277Z,99.50
2022-10-10T07:42:06.886Z,99.50
2022-10-10T07:44:34.705Z,99.60
2022-10-10T07:47:01.813Z,99.60
2022-10-10T07:49:28.583Z,99.70
2022-10-10T07:51:58.961Z,99.60
2022-10-10T07:54:27.498Z,99.30
2022-10-10T07:56:54.165Z,99.60
2022-10-10T07:59:20.897Z,99.50
2022-10-10T08:01:47.583Z,99.50
2022-10-10T08:04:14.392Z,99.70
2022-10-10T08:06:41.018Z,99.80
2022-10-10T08:09:08.933Z,99.70
2022-10-10T08:11:35.686Z,99.30
2022-10-10T08:14:02.320Z,99.80
2022-10-10T08:16:29.156Z,99.90
2022-10-10T08:18:55.905Z,99.90
2022-10-10T08:21:22.576Z,99.90
2022-10-10T08:23:49.263Z,99.90
2022-10-10T08:26:17.753Z,99.90
2022-10-10T08:28:45.257Z,99.90
2022-10-10T08:31:17.460Z,99.90
2022-10-10T08:33:45.980Z,99.80
2022-10-10T08:36:16.046Z,99.90
2022-10-10T08:38:43.423Z,99.90
2022-10-10T08:41:34.853Z,99.90
2022-10-10T08:44:21.565Z,99.90
2022-10-10T08:47:02.117Z,99.90
2022-10-10T08:50:23.327Z,99.90
2022-10-10T08:53:22.109Z,99.90
2022-10-10T08:55:49.821Z,99.90
2022-10-10T08:58:24.185Z,99.90
2022-10-10T09:01:00.743Z,99.90
2022-10-10T09:03:45.783Z,99.90
2022-10-10T09:06:33.552Z,99.90
2022-10-10T09:09:28.295Z,99.90
2022-10-10T09:12:16.819Z,99.90
2022-10-10T09:15:02.448Z,99.90
2022-10-10T09:17:48.056Z,99.90
2022-10-10T09:20:43.962Z,99.90
2022-10-10T09:23:36.640Z,99.90
2022-10-10T09:26:10.281Z,99.90
2022-10-10T09:28:44.355Z,99.90
2022-10-10T09:31:23.595Z,99.90
2022-10-10T09:33:57.409Z,99.90
2022-10-10T09:36:31.706Z,99.90
2022-10-10T09:39:12.398Z,99.90
2022-10-10T09:41:57.541Z,99.90
2022-10-10T09:44:24.371Z,99.90
2022-10-10T09:46:51.332Z,99.90
2022-10-10T09:49:19.681Z,99.90
2022-10-10T09:51:48.731Z,99.90
2022-10-10T09:54:18.385Z,99.90
2022-10-10T09:56:56.289Z,99.90
2022-10-10T09:59:40.568Z,99.90
2022-10-10T10:02:19.536Z,99.90
2022-10-10T10:04:47.434Z,99.90
2022-10-10T10:07:25.100Z,99.90
2022-10-10T10:09:58.092Z,99.90
2022-10-10T10:12:30.382Z,99.90
2022-10-10T10:15:05.635Z,99.90
2022-10-10T10:17:33.004Z,99.90
2022-10-10T10:19:59.674Z,99.90
2022-10-10T10:22:32.513Z,99.90
2022-10-10T10:25:00.678Z,99.90
2022-10-10T10:27:29.187Z,99.90
2022-10-10T10:29:58.127Z,99.90
2022-10-10T10:32:42.880Z,99.90
2022-10-10T10:35:18.436Z,99.90
2022-10-10T10:38:07.026Z,99.90
2022-10-10T10:40:44.799Z,99.90
2022-10-10T10:43:43.058Z,99.90
2022-10-10T10:46:18.679Z,99.90
2022-10-10T10:49:02.217Z,99.90
2022-10-10T10:51:42.707Z,99.90
2022-10-10T10:54:30.462Z,99.90
2022-10-10T10:57:06.295Z,99.90
2022-10-10T11:00:17.002Z,99.90
2022-10-10T11:02:56.015Z,99.90
2022-10-10T11:05:42.115Z,99.90
2022-10-10T11:08:18.107Z,99.90
2022-10-10T11:10:49.669Z,99.90
2022-10-10T11:13:30.452Z,99.90
2022-10-10T11:16:07.463Z,99.90
2022-10-10T11:18:46.335Z,99.90
2022-10-10T11:21:22.375Z,99.90
2022-10-10T11:24:06.919Z,99.90
2022-10-10T11:26:38.324Z,99.90
2022-10-10T11:29:11.449Z,99.90
2022-10-10T11:31:42.645Z,99.90
2022-10-10T11:34:27.779Z,99.90
2022-10-10T11:36:57.609Z,99.90
2022-10-10T11:39:30.567Z,99.90
2022-10-10T11:42:07.556Z,99.90
2022-10-10T11:44:45.650Z,99.90
2022-10-10T11:47:15.541Z,99.90
2022-10-10T11:49:54.415Z,99.90
2022-10-10T11:52:34.971Z,99.90
2022-10-10T11:55:49.524Z,99.90
2022-10-10T11:58:48.847Z,99.90
2022-10-10T12:01:25.942Z,99.90
2022-10-10T12:03:52.573Z,99.90
2022-10-10T12:06:22.670Z,99.90
2022-10-10T12:09:09.187Z,99.90
2022-10-10T12:11:45.668Z,99.90
2022-10-10T12:14:22.119Z,99.90
2022-10-10T12:16:49.164Z,99.90
2022-10-10T12:19:21.174Z,99.90
2022-10-10T12:22:05.952Z,99.90
2022-10-10T12:24:42.589Z,99.90
2022-10-10T12:27:25.698Z,99.90
2022-10-10T12:29:55.108Z,99.90
2022-10-10T12:32:24.711Z,99.90
2022-10-10T12:34:51.238Z,99.90
2022-10-10T12:37:32.906Z,99.90
2022-10-10T12:40:05.379Z,99.90
2022-10-10T12:42:39.432Z,99.90
2022-10-10T12:45:31.147Z,99.90
2022-10-10T12:48:06.220Z,99.90
2022-10-10T12:50:40.189Z,99.90
2022-10-10T12:53:18.171Z,99.90
2022-10-10T12:55:47.300Z,99.90
2022-10-10T12:58:27.529Z,99.90
2022-10-10T13:00:57.962Z,99.90
2022-10-10T13:03:31.658Z,99.90
2022-10-10T13:06:23.806Z,99.90
2022-10-10T13:08:53.563Z,99.90
2022-10-10T13:11:20.228Z,99.90
2022-10-10T13:13:56.143Z,99.90
2022-10-10T13:16:33.705Z,99.90
2022-10-10T13:19:00.892Z,99.90
2022-10-10T13:21:31.141Z,99.90
2022-10-10T13:24:04.539Z,99.90
2022-10-10T13:26:38.700Z,99.90
2022-10-10T13:29:17.964Z,99.90
2022-10-10T13:31:45.083Z,99.90
2022-10-10T13:34:16.927Z,99.90
2022-10-10T13:36:43.785Z,99.90
2022-10-10T13:39:16.256Z,99.90
2022-10-10T13:41:47.159Z,99.90
2022-10-10T13:44:16.595Z,99.90
2022-10-10T13:46:43.249Z,99.90
2022-10-10T13:49:27.157Z,99.90
2022-10-10T13:52:28.342Z,99.90
2022-10-10T13:55:13.197Z,99.90
2022-10-10T13:57:40.799Z,99.90
2022-10-10T14:00:16.349Z,99.90
2022-10-10T14:02:44.504Z,99.90
2022-10-10T14:05:27.896Z,99.90
2022-10-10T14:07:56.320Z,99.90
2022-10-10T14:10:26.062Z,99.90
2022-10-10T14:12:56.888Z,99.90
2022-10-10T14:15:50.011Z,99.90
2022-10-10T14:18:25.529Z,99.90
2022-10-10T14:21:05.988Z,99.90
2022-10-10T14:23:32.971Z,99.90
2022-10-10T14:25:59.849Z,99.90
2022-10-10T14:28:28.794Z,99.90
2022-10-10T14:30:55.929Z,99.90
2022-10-10T14:33:23.355Z,99.90
2022-10-10T14:35:52.290Z,99.90
2022-10-10T14:38:19.062Z,99.90
2022-10-10T14:40:49.314Z,99.90
2022-10-10T14:43:17.239Z,99.90
2022-10-10T14:45:44.888Z,99.90
2022-10-10T14:48:12.336Z,99.90
2022-10-10T14:50:46.070Z,99.90
2022-10-10T14:53:14.185Z,99.90
2022-10-10T14:55:44.225Z,99.90
2022-10-10T14:58:21.369Z,99.90
2022-10-10T15:00:50.377Z,99.90
2022-10-10T15:03:17.351Z,99.90
2022-10-10T15:05:44.345Z,99.90
2022-10-10T15:08:17.954Z,99.90
2022-10-10T15:10:45.474Z,99.90
2022-10-10T15:13:13.301Z,99.90
2022-10-10T15:15:40.047Z,99.90
2022-10-10T15:18:20.085Z,99.90
2022-10-10T15:20:53.732Z,99.90
2022-10-10T15:23:21.317Z,99.90
2022-10-10T15:25:48.163Z,99.90
2022-10-10T15:28:15.008Z,99.90
2022-10-10T15:30:45.680Z,99.90
2022-10-10T15:33:12.483Z,99.90
2022-10-10T15:36:04.001Z,99.90
2022-10-10T15:38:26.988Z,99.90
2022-10-10T15:40:58.326Z,99.90
2022-10-10T15:43:26.210Z,99.90
2022-10-10T15:45:56.518Z,99.90
2022-10-10T15:48:23.325Z,99.90
2022-10-10T15:50:51.332Z,99.90
2022-10-10T15:53:18.662Z,99.90
2022-10-10T15:55:46.950Z,99.90
2022-10-10T15:58:15.058Z,99.90
2022-10-10T16:00:43.961Z,99.90
2022-10-10T16:03:11.064Z,99.90
2022-10-10T16:05:48.192Z,99.90
2022-10-10T16:08:14.953Z,99.90
2022-10-10T16:10:43.046Z,99.90
2022-10-10T16:13:10.520Z,99.90
2022-10-10T16:15:37.400Z,99.90
2022-10-10T16:18:04.161Z,99.90
2022-10-10T16:20:30.946Z,99.90
2022-10-10T16:22:57.706Z,99.90
2022-10-10T16:25:24.483Z,99.90
2022-10-10T16:27:52.594Z,99.90
2022-10-10T16:30:20.382Z,99.90
2022-10-10T16:32:47.887Z,99.90
2022-10-10T16:35:14.715Z,99.90
2022-10-10T16:37:41.455Z,99.90
2022-10-10T16:40:31.733Z,99.90
2022-10-10T16:42:58.547Z,99.90
2022-10-10T16:45:25.337Z,99.90
2022-10-10T16:48:04.132Z,99.90
2022-10-10T16:50:30.966Z,99.90
2022-10-10T16:52:59.205Z,99.90
2022-10-10T16:55:25.972Z,99.90
2022-10-10T16:57:52.723Z,99.90
2022-10-10T17:00:19.580Z,99.90
2022-10-10T17:02:46.466Z,99.90
2022-10-10T17:13:41.794Z,99.90
2022-10-10T17:27:47.917Z,99.90
2022-10-10T17:30:33.927Z,99.90
2022-10-10T17:45:17.456Z,99.90
2022-10-10T17:47:44.198Z,99.90
2022-10-10T17:50:13.086Z,99.90
2022-10-10T17:52:41.984Z,99.90
2022-10-10T17:55:08.964Z,99.90
2022-10-10T17:57:35.782Z,99.90
2022-10-10T18:00:02.919Z,99.90
2022-10-10T18:02:32.489Z,99.90
2022-10-10T18:04:59.247Z,99.90
2022-10-10T18:07:26.313Z,99.90
2022-10-10T18:09:53.346Z,99.90
2022-10-10T18:12:21.159Z,99.90
2022-10-10T18:14:47.974Z,99.90
2022-10-10T18:17:14.699Z,99.90
2022-10-10T18:19:41.535Z,99.90
2022-10-10T18:22:09.353Z,99.90
2022-10-10T18:24:36.161Z,99.90
2022-10-10T18:27:03.014Z,99.90
2022-10-10T18:29:29.887Z,99.90
2022-10-10T18:31:56.742Z,99.90
2022-10-10T18:34:23.551Z,99.90
2022-10-10T18:36:52.714Z,99.90
2022-10-10T18:39:19.937Z,99.90
2022-10-10T18:41:48.926Z,99.90
2022-10-10T18:44:18.685Z,99.90
2022-10-10T18:46:46.359Z,99.90
2022-10-10T18:49:14.520Z,99.90
2022-10-10T18:51:43.267Z,99.90
2022-10-10T18:54:14.054Z,99.90
2022-10-10T18:56:41.582Z,99.90
2022-10-10T18:59:12.692Z,99.90
2022-10-10T19:01:40.343Z,99.90
2022-10-10T19:04:09.359Z,99.90
2022-10-10T19:06:38.248Z,99.90
2022-10-10T19:09:07.607Z,99.90
2022-10-10T19:11:39.351Z,99.90
2022-10-10T19:14:11.814Z,99.90
2022-10-10T19:16:48.986Z,99.90
2022-10-10T19:19:18.507Z,99.90
2022-10-10T19:25:09.767Z,99.90
2022-10-10T19:27:36.689Z,99.90
2022-10-10T19:30:06.891Z,99.90
2022-10-10T19:32:33.924Z,99.90
2022-10-10T19:35:00.919Z,99.90
2022-10-10T19:37:27.710Z,99.90
2022-10-10T19:43:17.263Z,99.90
2022-10-10T19:45:51.589Z,99.90
2022-10-10T19:51:26.746Z,99.90
2022-10-10T19:56:44.110Z,99.90
2022-10-10T19:59:10.735Z,99.90
2022-10-10T20:01:37.421Z,99.90
2022-10-10T20:04:04.079Z,99.90
2022-10-10T20:06:31.073Z,99.90
2022-10-10T20:08:57.723Z,99.90
2022-10-10T20:11:26.105Z,99.90
2022-10-10T20:13:54.792Z,99.90
2022-10-10T20:16:22.403Z,99.90
2022-10-10T20:18:49.058Z,99.90
2022-10-10T20:21:20.500Z,99.90
2022-10-10T20:23:47.901Z,99.90
2022-10-10T20:26:20.099Z,99.90
2022-10-10T20:28:49.540Z,99.90
2022-10-10T20:31:25.120Z,99.90
2022-10-10T20:33:53.820Z,99.90
2022-10-10T20:36:22.145Z,99.90
2022-10-10T20:38:53.744Z,99.90
2022-10-10T20:41:20.809Z,99.90
2022-10-10T20:43:47.467Z,99.90
2022-10-10T20:46:14.764Z,99.90
2022-10-10T20:48:41.761Z,99.90
2022-10-10T20:51:12.091Z,99.90
2022-10-10T20:53:43.233Z,99.90
2022-10-10T20:56:12.477Z,99.90
2022-10-10T20:58:40.047Z,99.90
2022-10-10T21:01:11.780Z,99.90
2022-10-10T21:03:38.898Z,99.90
2022-10-10T21:06:14.203Z,99.90
2022-10-10T21:08:41.733Z,99.90
2022-10-10T21:11:10.849Z,99.90
2022-10-10T21:13:39.747Z,99.90
2022-10-10T21:16:17.572Z,99.90
2022-10-10T21:18:57.084Z,99.90
2022-10-10T21:21:25.112Z,99.90
2022-10-10T21:23:55.801Z,99.90
2022-10-10T21:26:24.799Z,99.90
2022-10-10T21:28:52.181Z,99.90
2022-10-10T21:31:21.933Z,99.90
2022-10-10T21:33:48.517Z,99.90
2022-10-10T21:36:16.616Z,99.90
2022-10-10T21:38:43.563Z,99.90
2022-10-10T21:41:12.405Z,99.90
2022-10-10T21:43:40.348Z,99.90
2022-10-10T21:46:13.375Z,99.90
2022-10-10T21:48:39.960Z,99.90
2022-10-10T21:51:06.597Z,99.90
2022-10-10T21:53:33.277Z,99.90
2022-10-10T21:56:05.881Z,99.90
2022-10-10T21:58:35.916Z,99.90
2022-10-10T22:01:10.654Z,99.90
2022-10-10T22:03:37.944Z,99.90
2022-10-10T22:06:06.453Z,99.90
2022-10-10T22:08:33.603Z,99.90
2022-10-10T22:11:05.438Z,99.90
2022-10-10T22:13:32.383Z,99.90
2022-10-10T22:15:59.588Z,99.90
2022-10-10T22:18:26.942Z,99.90
2022-10-10T22:20:54.239Z,99.90
2022-10-10T22:23:21.277Z,99.90
2022-10-10T22:25:49.353Z,99.90
2022-10-10T22:28:16.541Z,99.90
2022-10-10T22:30:44.233Z,99.90
2022-10-10T22:33:11.118Z,99.90
2022-10-10T22:35:38.350Z,99.90
2022-10-10T22:38:04.954Z,99.90
2022-10-10T22:40:31.784Z,99.90
2022-10-10T22:42:58.717Z,99.90
2022-10-10T22:45:25.532Z,99.90
2022-10-10T22:47:52.278Z,99.90
2022-10-10T22:50:19.365Z,99.90
2022-10-10T22:52:45.972Z,99.90
2022-10-10T22:55:17.985Z,99.90
2022-10-10T22:57:44.992Z,99.90
2022-10-10T23:00:12.368Z,99.90
2022-10-10T23:02:38.988Z,99.90
2022-10-10T23:05:06.136Z,99.90
2022-10-10T23:07:33.271Z,99.90
2022-10-10T23:09:59.938Z,99.90
2022-10-10T23:12:26.570Z,99.90
2022-10-10T23:14:53.211Z,99.90
2022-10-10T23:17:19.857Z,99.90
2022-10-10T23:19:46.468Z,99.90
2022-10-10T23:22:13.048Z,99.90
2022-10-10T23:24:40.207Z,99.90
2022-10-10T23:27:06.893Z,99.90
2022-10-10T23:29:33.919Z,99.90
2022-10-10T23:32:00.508Z,99.90
2022-10-10T23:34:27.137Z,99.90
2022-10-10T23:36:53.739Z,99.90
2022-10-10T23:39:20.446Z,99.90
2022-10-10T23:41:47.135Z,99.90
2022-10-10T23:44:13.726Z,99.90
2022-10-10T23:46:40.343Z,99.90
2022-10-10T23:49:06.946Z,99.90
2022-10-10T23:51:33.526Z,99.90
2022-10-10T23:54:00.096Z,99.90
2022-10-10T23:56:26.795Z,99.90
2022-10-10T23:58:53.829Z,99.90
